createdAt,value
2022-08-31T00:00:00.000Z,23.53
2022-08-31T00:15:00.000Z,23.6
2022-08-31T00:30:00.000Z,23
2022-08-31T00:45:00.000Z,23.32
2022-08-31T01:00:00.000Z,23.4
2022-08-31T01:15:00.000Z,23.39
2022-08-31T01:30:00.000Z,22.6
2022-08-31T01:45:00.000Z,22.45
2022-08-31T02:00:00.000Z,23.57
2022-08-31T02:15:00.000Z,21.78
2022-08-31T02:30:00.000Z,22.66
2022-08-31T02:45:00.000Z,22.91
2022-08-31T03:00:00.000Z,21.8
2022-08-31T03:30:00.000Z,25
2022-08-31T03:30:00.000Z,24.51
2022-08-31T03:45:00.000Z,22.53
2022-08-31T04:00:00.000Z,22.71
2022-08-31T04:30:00.000Z,30
2022-08-31T04:30:00.000Z,29.81
2022-08-31T04:45:00.000Z,30.73
2022-08-31T05:00:00.000Z,25.25
2022-08-31T05:15:00.000Z,24
2022-08-31T05:30:00.000Z,24.2
2022-08-31T05:45:00.000Z,26.67
2022-08-31T06:00:00.000Z,26.38
2022-08-31T06:15:00.000Z,30.73
2022-08-31T06:30:00.000Z,29.91
2022-08-31T06:45:00.000Z,30.46
2022-08-31T07:00:00.000Z,31.49
2022-08-31T07:15:00.000Z,30.55
2022-08-31T07:30:00.000Z,29.75
2022-08-31T07:45:00.000Z,31.09
2022-08-31T08:00:00.000Z,30.38
2022-08-31T08:15:00.000Z,30.87
2022-08-31T08:30:00.000Z,29.58
2022-08-31T08:45:00.000Z,29.35
2022-08-31T09:00:00.000Z,30.62
2022-08-31T09:15:00.000Z,26.94
2022-08-31T09:30:00.000Z,24.85
2022-08-31T09:45:00.000Z,18.35
2022-08-31T10:00:00.000Z,17.02
2022-08-31T10:15:00.000Z,17.21
2022-08-31T10:30:00.000Z,15.86
2022-08-31T10:45:00.000Z,16.32
2022-08-31T11:00:00.000Z,18.4
2022-08-31T11:15:00.000Z,15.94
2022-08-31T11:30:00.000Z,11.06
2022-08-31T11:45:00.000Z,8.29
2022-08-31T12:00:00.000Z,7.45
2022-08-31T12:15:00.000Z,9.4
2022-08-31T12:30:00.000Z,9.94
2022-08-31T12:45:00.000Z,9.68
2022-08-31T13:00:00.000Z,7.98
2022-08-31T13:15:00.000Z,9.54
2022-08-31T13:30:00.000Z,8.76
2022-08-31T13:45:00.000Z,10.05
2022-08-31T14:00:00.000Z,10.51
2022-08-31T14:15:00.000Z,10.31
2022-08-31T14:30:00.000Z,10.44
2022-08-31T14:45:00.000Z,11.25
2022-08-31T15:00:00.000Z,11.8
2022-08-31T15:15:00.000Z,12.22
2022-08-31T15:30:00.000Z,13.39
2022-08-31T15:45:00.000Z,13.65
2022-08-31T16:00:00.000Z,13.45
2022-08-31T16:15:00.000Z,14.87
2022-08-31T16:30:00.000Z,16.28
2022-08-31T16:45:00.000Z,15.68
2022-08-31T17:00:00.000Z,14.98
2022-08-31T17:15:00.000Z,14.01
2022-08-31T17:30:00.000Z,13.73
2022-08-31T17:45:00.000Z,14.07
2022-08-31T18:00:00.000Z,12.8
2022-08-31T18:15:00.000Z,13.32
2022-08-31T18:30:00.000Z,13.93
2022-08-31T18:45:00.000Z,16.74
2022-08-31T19:00:00.000Z,17.8
2022-08-31T19:15:00.000Z,18.71
2022-08-31T19:30:00.000Z,17.94
2022-08-31T19:45:00.000Z,18.14
2022-08-31T20:00:00.000Z,18.13
2022-08-31T20:15:00.000Z,20.75
2022-08-31T20:30:00.000Z,23.93
2022-08-31T20:45:00.000Z,26.12
2022-08-31T21:00:00.000Z,27.88
2022-08-31T21:15:00.000Z,26.53
2022-08-31T21:30:00.000Z,23.78
2022-08-31T21:45:00.000Z,20.91
2022-08-31T22:00:00.000Z,18.05
2022-08-31T22:15:00.000Z,13.53
2022-08-31T22:30:00.000Z,9.85
2022-08-31T22:45:00.000Z,10.28
2022-08-31T23:00:00.000Z,10.6
2022-08-31T23:15:00.000Z,10.99
2022-08-31T23:30:00.000Z,12.71
2022-08-31T23:45:00.000Z,11.78
